Portada
METAR-TAF:

METAR-TAF

Aeroports :

Kaiser-Lake Ozark, Missouri, Estats Units d'Amèrica

latitud: 38-06N, longitud: 092-33W, altitud: 265 m

Observació

L'informe es va fer fa 52 minuts, a les 13:56 UTC
Vent 10 kt del Sud
Temperatura -6°C
Humitat 68%
Pressió 1023 hPa
Visibilitat: 16.1 km
Cel clar

METAR: KAIZ 131356Z AUTO 17010KT 10SM CLR M06/M11 A3021 RMK AO2 SLP242 T10561106 FZRANO

Hora: 08:48 (14:48 UTC)


TAF: manca

Observacions i pronòstics meteorològics de més de 4000 aeroports (METAR i TAF).

Les estacions disponibles són els punts grocs i vermells al mapa.

Posi el ratolí al punt desitjat per veure el nom de l'estació.

Feu clic per veure les observacions i els pronòstics meteorològics.

Per canviar el mapa: feu clic els botons verds amb una creu de color negre per apropar; al botó verd amb un guió per allunyar la imatge; o en les fletxes verdes per a mapes adjacents.


METAR-TAF: